Baraga, Michigan
Current Conditions -  °F | °C
As of 9:53 PM on Wednesday 26 Nov 2014 (Local Time) from KCMX Reporting Station
Light Snow Light Snow  
Wind Chill:   Ceiling: 1300
Heat Index: 16°   Visibility: 1.5mi
Dew Point: 10°   Wind: 14mph
Humidity: 77%   Direction: 360°N
Pressure: 30.19"   Gusts: NA
Location:  46.78°N, 88.49°W
Report Text: KCMX 270253Z AUTO 36012KT 1 1/2SM -SN OVC013 M09/M12 A3019 RMK AO2 SLP245 P0000 60000 T10891122 53001
Loading
Personal Weather Stations






























Interactive Weather Map New forecast layout! Learn more

10-Day Weather Forecast

Advertisements
Track Severe Weather on mobile